createdAt,value
2018-12-02T00:01:34.585Z,3.10
2018-12-02T00:04:05.745Z,4.10
2018-12-02T00:06:34.516Z,3.87
2018-12-02T00:09:07.062Z,3.90
2018-12-02T00:11:35.504Z,3.47
2018-12-02T00:14:05.235Z,3.27
2018-12-02T00:16:36.539Z,3.60
2018-12-02T00:19:06.090Z,3.57
2018-12-02T00:21:34.505Z,3.43
2018-12-02T00:24:06.187Z,2.57
2018-12-02T00:26:37.365Z,2.90
2018-12-02T00:29:05.846Z,3.30
2018-12-02T00:31:34.389Z,2.93
2018-12-02T00:34:05.405Z,3.13
2018-12-02T00:36:33.824Z,2.80
2018-12-02T00:39:05.377Z,2.40
2018-12-02T00:41:33.817Z,4.30
2018-12-02T00:44:07.470Z,3.63
2018-12-02T00:46:35.898Z,3.13
2018-12-02T00:49:05.178Z,2.37
2018-12-02T00:51:33.621Z,5.43
2018-12-02T00:54:04.682Z,3.93
2018-12-02T00:56:35.128Z,2.70
2018-12-02T00:59:05.233Z,3.60
2018-12-02T01:01:33.657Z,3.13
2018-12-02T01:04:05.250Z,3.50
2018-12-02T01:06:33.668Z,4.10
2018-12-02T01:09:04.645Z,4.53
2018-12-02T01:11:33.140Z,2.73
2018-12-02T01:14:03.500Z,3.07
2018-12-02T01:16:31.948Z,2.70
2018-12-02T01:19:00.373Z,3.77
2018-12-02T01:21:28.838Z,3.67
2018-12-02T01:23:57.236Z,3.00
2018-12-02T01:26:25.677Z,2.60
2018-12-02T01:28:54.095Z,2.50
2018-12-02T01:31:22.558Z,2.30
2018-12-02T01:33:50.983Z,3.10
2018-12-02T01:36:19.524Z,3.10
2018-12-02T01:38:47.944Z,2.27
2018-12-02T01:41:16.385Z,1.87
2018-12-02T01:43:44.920Z,2.40
2018-12-02T01:46:13.379Z,4.27
2018-12-02T01:48:41.804Z,2.13
2018-12-02T01:51:10.246Z,2.03
2018-12-02T01:53:38.705Z,2.43
2018-12-02T01:56:07.197Z,2.13
2018-12-02T01:58:35.625Z,2.20
2018-12-02T02:01:05.289Z,2.23
2018-12-02T02:03:33.731Z,2.73
2018-12-02T02:06:04.641Z,3.63
2018-12-02T02:08:33.048Z,2.77
2018-12-02T02:11:05.209Z,3.10
2018-12-02T02:13:33.617Z,2.40
2018-12-02T02:16:04.805Z,2.70
2018-12-02T02:18:33.228Z,2.17
2018-12-02T02:21:06.089Z,2.00
2018-12-02T02:23:34.493Z,2.47
2018-12-02T02:26:05.514Z,1.90
2018-12-02T02:28:33.929Z,1.80
2018-12-02T02:31:06.098Z,2.60
2018-12-02T02:33:34.523Z,2.20
2018-12-02T02:36:06.217Z,3.07
2018-12-02T02:38:34.633Z,1.80
2018-12-02T02:41:06.287Z,2.10
2018-12-02T02:43:34.698Z,2.13
2018-12-02T02:46:05.454Z,2.97
2018-12-02T02:48:33.860Z,2.30
2018-12-02T02:51:06.113Z,2.17
2018-12-02T02:53:34.554Z,2.10
2018-12-02T02:56:05.671Z,2.17
2018-12-02T02:58:34.130Z,1.80
2018-12-02T03:01:06.111Z,2.13
2018-12-02T03:03:34.559Z,2.20
2018-12-02T03:06:05.317Z,2.20
2018-12-02T03:08:33.784Z,2.43
2018-12-02T03:11:05.266Z,2.13
2018-12-02T03:13:33.721Z,2.17
2018-12-02T03:16:04.671Z,2.43
2018-12-02T03:18:33.136Z,3.20
2018-12-02T03:21:04.381Z,1.80
2018-12-02T03:23:32.842Z,2.43
2018-12-02T03:26:03.765Z,2.53
2018-12-02T03:28:32.213Z,2.13
2018-12-02T03:31:00.655Z,1.83
2018-12-02T03:33:29.416Z,3.80
2018-12-02T03:35:57.820Z,2.13
2018-12-02T03:38:26.272Z,2.30
2018-12-02T03:40:54.700Z,2.23
2018-12-02T03:43:23.140Z,1.73
2018-12-02T03:45:51.687Z,2.77
2018-12-02T03:48:20.109Z,1.60
2018-12-02T03:50:48.543Z,2.33
2018-12-02T03:53:16.985Z,2.43
2018-12-02T03:55:45.427Z,1.70
2018-12-02T03:58:13.825Z,3.27
2018-12-02T04:00:43.522Z,3.00
2018-12-02T04:03:12.309Z,1.80
2018-12-02T04:05:40.762Z,2.70
2018-12-02T04:08:09.273Z,1.70
2018-12-02T04:10:37.680Z,1.93
2018-12-02T04:13:06.323Z,2.20
2018-12-02T04:15:34.750Z,2.43
2018-12-02T04:18:07.087Z,3.67
2018-12-02T04:20:35.500Z,1.83
2018-12-02T04:23:05.781Z,1.87
2018-12-02T04:25:34.215Z,1.40
2018-12-02T04:28:05.903Z,2.10
2018-12-02T04:30:43.052Z,2.07
2018-12-02T04:33:11.775Z,1.97
2018-12-02T04:35:40.207Z,2.13
2018-12-02T04:38:08.673Z,2.27
2018-12-02T04:40:37.072Z,1.63
2018-12-02T04:43:05.649Z,1.93
2018-12-02T04:45:34.077Z,1.63
2018-12-02T04:48:05.353Z,2.10
2018-12-02T04:50:33.765Z,1.83
2018-12-02T04:53:06.121Z,1.80
2018-12-02T04:55:34.529Z,1.77
2018-12-02T04:58:06.216Z,1.63
2018-12-02T05:00:34.641Z,1.50
2018-12-02T05:03:06.549Z,1.97
2018-12-02T05:05:34.973Z,1.40
2018-12-02T05:08:05.453Z,2.23
2018-12-02T05:10:33.862Z,1.67
2018-12-02T05:13:06.147Z,2.33
2018-12-02T05:15:34.559Z,1.77
2018-12-02T05:18:07.008Z,1.40
2018-12-02T05:20:35.444Z,1.67
2018-12-02T05:23:05.190Z,1.70
2018-12-02T05:25:33.608Z,1.70
2018-12-02T05:28:05.374Z,1.60
2018-12-02T05:30:33.803Z,1.83
2018-12-02T05:33:05.497Z,2.80
2018-12-02T05:35:33.928Z,2.33
2018-12-02T05:38:07.096Z,1.60
2018-12-02T05:40:35.513Z,2.63
2018-12-02T05:43:05.186Z,1.83
2018-12-02T05:45:33.660Z,1.43
2018-12-02T05:48:05.420Z,1.70
2018-12-02T05:50:33.865Z,1.50
2018-12-02T05:53:05.957Z,1.80
2018-12-02T05:55:36.217Z,1.70
2018-12-02T05:58:05.573Z,2.63
2018-12-02T06:00:33.991Z,1.50
2018-12-02T06:03:06.269Z,2.10
2018-12-02T06:05:34.704Z,4.40
2018-12-02T06:08:07.209Z,1.67
2018-12-02T06:10:35.656Z,1.83
2018-12-02T06:13:05.672Z,1.77
2018-12-02T06:15:34.148Z,1.70
2018-12-02T06:18:05.370Z,1.67
2018-12-02T06:20:33.820Z,2.40
2018-12-02T06:23:04.613Z,2.40
2018-12-02T06:25:34.230Z,1.83
2018-12-02T06:28:04.621Z,1.60
2018-12-02T06:30:33.779Z,1.73
2018-12-02T06:33:06.541Z,3.50
2018-12-02T06:35:35.041Z,1.70
2018-12-02T06:38:07.125Z,1.70
2018-12-02T06:40:37.014Z,1.73
2018-12-02T06:43:05.526Z,1.80
2018-12-02T06:45:34.479Z,1.60
2018-12-02T06:48:04.701Z,1.53
2018-12-02T06:50:33.109Z,1.53
2018-12-02T06:53:03.722Z,2.13
2018-12-02T06:56:10.007Z,2.03
2018-12-02T06:58:46.182Z,2.03
2018-12-02T07:05:03.745Z,1.60
2018-12-02T07:07:32.249Z,1.60
2018-12-02T07:10:00.669Z,1.43
2018-12-02T07:12:29.150Z,1.67
2018-12-02T07:14:57.564Z,2.03
2018-12-02T07:17:26.902Z,1.63
2018-12-02T07:19:56.024Z,2.23
2018-12-02T07:22:27.591Z,2.43
2018-12-02T07:24:56.080Z,1.47
2018-12-02T07:27:24.549Z,1.90
2018-12-02T07:29:53.030Z,1.57
2018-12-02T07:32:21.488Z,1.60
2018-12-02T07:34:49.909Z,2.33
2018-12-02T07:37:20.877Z,2.77
2018-12-02T07:40:00.494Z,2.30
2018-12-02T07:42:28.999Z,1.63
2018-12-02T07:44:57.413Z,2.40
2018-12-02T07:47:25.870Z,1.87
2018-12-02T07:49:54.302Z,1.50
2018-12-02T07:52:22.725Z,1.73
2018-12-02T07:54:51.194Z,1.97
2018-12-02T07:57:19.609Z,1.87
2018-12-02T07:59:48.078Z,2.17
2018-12-02T08:02:16.542Z,1.97
2018-12-02T08:04:45.011Z,1.80
2018-12-02T08:07:13.416Z,1.97
2018-12-02T08:09:42.625Z,2.60
2018-12-02T08:12:11.057Z,1.83
2018-12-02T08:14:39.481Z,3.07
2018-12-02T08:17:07.945Z,1.70
2018-12-02T08:19:36.374Z,1.60
2018-12-02T08:22:05.132Z,2.00
2018-12-02T08:24:33.529Z,2.77
2018-12-02T08:27:06.699Z,1.83
2018-12-02T08:29:35.110Z,2.30
2018-12-02T08:32:06.077Z,2.53
2018-12-02T08:34:34.505Z,2.17
2018-12-02T08:37:05.556Z,4.33
2018-12-02T08:39:33.960Z,2.30
2018-12-02T08:42:06.783Z,2.00
2018-12-02T08:44:35.312Z,2.23
2018-12-02T08:47:06.770Z,2.20
2018-12-02T08:49:35.459Z,2.70
2018-12-02T08:52:07.964Z,2.17
2018-12-02T08:54:38.504Z,2.53
2018-12-02T08:57:08.564Z,2.50
2018-12-02T08:59:37.153Z,3.87
2018-12-02T09:02:05.985Z,2.53
2018-12-02T09:04:34.452Z,3.67
2018-12-02T09:07:08.953Z,3.60
2018-12-02T09:09:37.699Z,3.70
2018-12-02T09:12:06.765Z,3.57
2018-12-02T09:14:35.237Z,3.47
2018-12-02T09:17:06.584Z,3.00
2018-12-02T09:19:35.048Z,2.40
2018-12-02T09:22:06.726Z,2.73
2018-12-02T09:24:35.201Z,2.73
2018-12-02T09:27:07.472Z,4.33
2018-12-02T09:29:35.931Z,2.80
2018-12-02T09:32:06.189Z,1.93
2018-12-02T09:34:34.654Z,3.40
2018-12-02T09:37:06.584Z,2.23
2018-12-02T09:39:35.038Z,3.10
2018-12-02T09:42:05.161Z,2.87
2018-12-02T09:44:33.833Z,3.70
2018-12-02T09:47:04.978Z,2.47
2018-12-02T09:49:33.408Z,4.17
2018-12-02T09:52:03.475Z,2.43
2018-12-02T09:54:31.946Z,2.57
2018-12-02T09:57:00.407Z,3.33
2018-12-02T09:59:28.826Z,3.50
2018-12-02T10:01:57.333Z,4.60
2018-12-02T10:04:25.749Z,3.70
2018-12-02T10:06:54.289Z,2.77
2018-12-02T10:09:22.875Z,2.40
2018-12-02T10:11:51.294Z,3.73
2018-12-02T10:14:20.026Z,3.33
2018-12-02T10:16:48.425Z,3.10
2018-12-02T10:19:16.836Z,3.37
2018-12-02T10:21:45.290Z,3.73
2018-12-02T10:24:13.694Z,3.87
2018-12-02T10:26:42.148Z,3.57
2018-12-02T10:29:10.567Z,3.17
2018-12-02T10:31:39.065Z,3.43
2018-12-02T10:34:08.957Z,6.33
2018-12-02T10:36:37.585Z,2.83
2018-12-02T10:39:09.492Z,2.40
2018-12-02T10:41:38.036Z,2.27
2018-12-02T10:44:06.581Z,1.40
2018-12-02T10:46:35.101Z,1.80
2018-12-02T10:49:05.974Z,3.77
2018-12-02T10:51:34.453Z,2.03
2018-12-02T10:54:06.893Z,2.50
2018-12-02T10:56:35.374Z,4.03
2018-12-02T10:59:06.144Z,2.00
2018-12-02T11:01:39.485Z,2.37
2018-12-02T11:04:07.913Z,2.27
2018-12-02T11:06:36.435Z,2.67
2018-12-02T11:09:09.609Z,2.13
2018-12-02T11:11:38.143Z,1.60
2018-12-02T11:14:07.033Z,2.43
2018-12-02T11:16:35.622Z,2.57
2018-12-02T11:19:05.133Z,2.10
2018-12-02T11:21:33.601Z,3.43
2018-12-02T11:24:04.650Z,3.30
2018-12-02T11:26:33.106Z,4.07
2018-12-02T11:29:03.424Z,4.40
2018-12-02T11:31:31.849Z,1.90
2018-12-02T11:34:00.673Z,1.70
2018-12-02T11:36:29.096Z,2.20
2018-12-02T11:38:57.517Z,1.93
2018-12-02T11:41:26.404Z,3.43
2018-12-02T11:43:54.815Z,2.23
2018-12-02T11:46:23.504Z,2.60
2018-12-02T11:48:52.264Z,3.17
2018-12-02T11:51:20.685Z,1.97
2018-12-02T11:53:49.165Z,1.90
2018-12-02T11:56:17.614Z,2.43
2018-12-02T11:58:46.045Z,1.73
2018-12-02T12:01:14.588Z,1.47
2018-12-02T12:03:43.040Z,2.27
2018-12-02T12:06:11.616Z,3.17
2018-12-02T12:08:40.102Z,1.67
2018-12-02T12:11:08.595Z,1.80
2018-12-02T12:13:37.098Z,2.10
2018-12-02T12:16:05.568Z,2.87
2018-12-02T12:18:34.100Z,2.40
2018-12-02T12:21:05.280Z,2.77
2018-12-02T12:23:33.731Z,2.03
2018-12-02T12:26:05.356Z,2.97
2018-12-02T12:28:33.797Z,2.97
2018-12-02T12:31:04.364Z,1.60
2018-12-02T12:33:34.965Z,2.97
2018-12-02T12:36:08.027Z,2.87
2018-12-02T12:38:36.668Z,1.70
2018-12-02T12:41:07.910Z,2.77
2018-12-02T12:43:38.144Z,4.40
2018-12-02T12:46:06.985Z,2.33
2018-12-02T12:48:35.408Z,2.00
2018-12-02T12:51:05.831Z,1.97
2018-12-02T12:53:34.295Z,4.00
2018-12-02T12:56:05.865Z,4.73
2018-12-02T12:58:34.350Z,2.97
2018-12-02T13:01:06.319Z,2.47
2018-12-02T13:03:34.778Z,2.50
2018-12-02T13:06:05.613Z,1.97
2018-12-02T13:11:08.068Z,4.30
2018-12-02T13:13:36.480Z,2.30
2018-12-02T13:16:05.333Z,2.63
2018-12-02T13:18:33.725Z,3.23
2018-12-02T13:21:05.428Z,3.67
2018-12-02T13:23:33.827Z,2.07
2018-12-02T13:26:05.160Z,3.07
2018-12-02T13:28:33.557Z,1.97
2018-12-02T13:31:04.453Z,2.20
2018-12-02T13:33:32.863Z,1.53
2018-12-02T13:36:04.180Z,1.27
2018-12-02T13:38:32.928Z,1.83
2018-12-02T13:41:03.461Z,2.10
2018-12-02T13:43:31.872Z,1.20
2018-12-02T13:46:00.318Z,1.17
2018-12-02T13:48:28.725Z,0.73
2018-12-02T13:50:57.128Z,0.77
2018-12-02T13:53:25.587Z,1.27
2018-12-02T13:55:54.032Z,0.83
2018-12-02T13:58:23.978Z,0.83
2018-12-02T14:00:51.789Z,0.80
2018-12-02T14:03:20.231Z,0.83
2018-12-02T14:05:49.238Z,0.57
2018-12-02T14:08:17.831Z,0.70
2018-12-02T14:10:46.452Z,1.13
2018-12-02T14:13:16.656Z,1.10
2018-12-02T14:16:57.102Z,1.43
2018-12-02T14:19:25.555Z,1.33
2018-12-02T14:21:54.124Z,0.87
2018-12-02T14:24:23.056Z,0.40
2018-12-02T14:26:51.649Z,1.17
2018-12-02T14:29:29.688Z,2.03
2018-12-02T14:31:59.628Z,0.40
2018-12-02T14:34:28.286Z,0.50
2018-12-02T14:36:57.113Z,0.57
2018-12-02T14:39:25.609Z,0.67
2018-12-02T14:41:54.061Z,0.50
2018-12-02T14:44:22.531Z,0.30
2018-12-02T14:46:51.070Z,0.60
2018-12-02T14:49:19.537Z,0.37
2018-12-02T14:51:47.933Z,0.20
2018-12-02T14:54:16.381Z,0.50
2018-12-02T14:56:44.793Z,0.30
2018-12-02T14:59:16.169Z,0.83
2018-12-02T15:01:44.660Z,0.33
2018-12-02T15:04:13.056Z,0.60
2018-12-02T15:06:41.502Z,1.07
2018-12-02T15:09:11.461Z,0.47
2018-12-02T15:11:40.112Z,0.50
2018-12-02T15:14:10.870Z,0.47
2018-12-02T15:16:39.286Z,0.50
2018-12-02T15:19:08.707Z,0.73
2018-12-02T15:21:37.113Z,0.40
2018-12-02T15:24:05.695Z,2.33
2018-12-02T15:26:34.093Z,0.33
2018-12-02T15:29:11.053Z,0.20
2018-12-02T15:31:39.445Z,0.77
2018-12-02T15:34:09.689Z,1.07
2018-12-02T15:36:38.112Z,0.37
2018-12-02T15:39:09.826Z,0.40
2018-12-02T15:41:39.041Z,0.33
2018-12-02T15:44:07.866Z,0.43
2018-12-02T15:46:37.124Z,0.50
2018-12-02T15:49:05.782Z,0.40
2018-12-02T15:51:34.228Z,0.20
2018-12-02T15:54:05.917Z,0.70
2018-12-02T15:56:34.443Z,0.83
2018-12-02T15:59:08.920Z,0.40
2018-12-02T16:01:38.503Z,0.30
2018-12-02T16:04:06.950Z,0.40
2018-12-02T16:06:44.963Z,0.53
2018-12-02T16:09:15.023Z,0.53
2018-12-02T16:11:42.348Z,1.60
2018-12-02T16:14:11.039Z,0.30
2018-12-02T16:16:39.565Z,0.53
2018-12-02T16:19:08.456Z,1.00
2018-12-02T16:21:43.530Z,0.50
2018-12-02T16:24:14.005Z,0.50
2018-12-02T16:26:42.596Z,0.60
2018-12-02T16:29:11.123Z,0.47
2018-12-02T16:31:40.584Z,0.30
2018-12-02T16:34:09.095Z,0.47
2018-12-02T16:36:37.679Z,0.70
2018-12-02T16:39:10.550Z,1.77
2018-12-02T16:41:39.410Z,0.60
2018-12-02T16:47:24.990Z,0.57
2018-12-02T16:49:54.870Z,0.30
2018-12-02T16:55:09.902Z,0.50
2018-12-02T16:57:40.254Z,0.33
2018-12-02T17:00:17.410Z,1.20
2018-12-02T17:02:54.435Z,0.40
2018-12-02T17:05:24.093Z,0.30
2018-12-02T17:07:57.049Z,9.77
2018-12-02T17:10:31.722Z,0.50
2018-12-02T17:13:09.196Z,0.60
2018-12-02T17:15:48.657Z,0.40
2018-12-02T17:18:18.470Z,0.37
2018-12-02T17:20:49.723Z,1.30
2018-12-02T17:23:21.163Z,0.30
2018-12-02T17:25:58.168Z,0.50
2018-12-02T17:28:28.925Z,1.13
2018-12-02T17:30:57.376Z,0.50
2018-12-02T17:33:25.841Z,0.47
2018-12-02T17:35:54.332Z,0.30
2018-12-02T17:38:24.430Z,0.50
2018-12-02T17:40:53.925Z,0.30
2018-12-02T17:43:22.408Z,0.47
2018-12-02T17:45:50.852Z,0.20
2018-12-02T17:48:19.278Z,0.73
2018-12-02T17:50:48.330Z,0.40
2018-12-02T17:53:16.758Z,0.73
2018-12-02T17:55:45.276Z,0.50
2018-12-02T17:58:13.687Z,1.23
2018-12-02T18:00:42.233Z,0.50
2018-12-02T18:03:13.961Z,0.43
2018-12-02T18:05:44.349Z,0.50
2018-12-02T18:08:12.877Z,0.37
2018-12-02T18:10:41.792Z,0.53
2018-12-02T18:13:11.236Z,0.50
2018-12-02T18:15:39.694Z,1.30
2018-12-02T18:18:08.560Z,1.40
2018-12-02T18:20:36.973Z,0.53
2018-12-02T18:23:06.073Z,0.70
2018-12-02T18:25:34.505Z,0.80
2018-12-02T18:28:04.328Z,0.60
2018-12-02T18:30:32.832Z,1.23
2018-12-02T18:33:03.628Z,1.07
2018-12-02T18:35:40.236Z,0.73
2018-12-02T18:38:12.461Z,0.63
2018-12-02T18:40:43.001Z,0.40
2018-12-02T18:43:12.214Z,0.70
2018-12-02T18:45:41.077Z,1.10
2018-12-02T18:48:09.542Z,0.50
2018-12-02T18:50:37.997Z,0.60
2018-12-02T18:53:10.915Z,0.50
2018-12-02T18:55:41.607Z,0.40
2018-12-02T18:58:10.053Z,0.50
2018-12-02T19:00:46.415Z,1.23
2018-12-02T19:03:15.813Z,0.50
2018-12-02T19:05:44.311Z,0.83
2018-12-02T19:08:12.764Z,0.67
2018-12-02T19:10:41.509Z,0.40
2018-12-02T19:13:09.964Z,0.87
2018-12-02T19:15:38.582Z,1.23
2018-12-02T19:18:07.068Z,1.00
2018-12-02T19:20:35.565Z,1.37
2018-12-02T19:23:10.015Z,0.73
2018-12-02T19:25:39.215Z,0.60
2018-12-02T19:28:07.748Z,0.50
2018-12-02T19:30:36.690Z,0.60
2018-12-02T19:33:06.738Z,1.00
2018-12-02T19:35:36.436Z,0.20
2018-12-02T19:38:17.030Z,0.50
2018-12-02T19:40:45.701Z,0.40
2018-12-02T19:43:14.117Z,0.40
2018-12-02T19:45:42.577Z,0.83
2018-12-02T19:48:11.326Z,1.33
2018-12-02T19:50:40.465Z,0.60
2018-12-02T19:53:09.384Z,0.37
2018-12-02T19:55:37.992Z,0.53
2018-12-02T19:58:09.955Z,0.60
2018-12-02T20:00:42.301Z,1.60
2018-12-02T20:03:12.937Z,0.40
2018-12-02T20:05:40.932Z,0.40
2018-12-02T20:08:11.417Z,0.40
2018-12-02T20:10:41.987Z,0.40
2018-12-02T20:13:12.896Z,0.33
2018-12-02T20:15:46.877Z,0.60
2018-12-02T20:18:15.517Z,0.20
2018-12-02T20:20:47.612Z,0.30
2018-12-02T20:23:21.577Z,0.43
2018-12-02T20:25:50.862Z,0.30
2018-12-02T20:28:19.538Z,0.40
2018-12-02T20:30:47.995Z,0.37
2018-12-02T20:33:16.485Z,0.30
2018-12-02T20:35:44.921Z,0.57
2018-12-02T20:38:13.389Z,0.47
2018-12-02T20:40:41.901Z,0.70
2018-12-02T20:43:10.465Z,0.30
2018-12-02T20:45:39.037Z,0.47
2018-12-02T20:48:07.564Z,0.80
2018-12-02T20:50:36.340Z,1.00
2018-12-02T20:53:06.061Z,0.80
2018-12-02T20:55:34.773Z,0.33
2018-12-02T20:58:06.357Z,0.70
2018-12-02T21:00:35.515Z,0.40
2018-12-02T21:03:21.745Z,0.40
2018-12-02T21:06:23.306Z,0.63
2018-12-02T21:08:51.865Z,0.40
2018-12-02T21:11:20.495Z,0.57
2018-12-02T21:13:49.307Z,1.07
2018-12-02T21:16:17.804Z,0.60
2018-12-02T21:18:46.266Z,0.30
2018-12-02T21:21:15.038Z,0.83
2018-12-02T21:23:43.537Z,0.30
2018-12-02T21:26:12.598Z,0.20
2018-12-02T21:28:41.753Z,0.57
2018-12-02T21:31:10.279Z,0.40
2018-12-02T21:33:38.684Z,0.40
2018-12-02T21:36:07.921Z,0.73
2018-12-02T21:38:36.457Z,0.30
2018-12-02T21:41:06.166Z,0.47
2018-12-02T21:43:35.469Z,0.30
2018-12-02T21:46:05.641Z,0.70
2018-12-02T21:48:34.070Z,0.10
2018-12-02T21:51:06.217Z,0.70
2018-12-02T21:53:34.656Z,0.73
2018-12-02T21:56:05.249Z,0.40
2018-12-02T21:58:33.686Z,0.90
2018-12-02T22:01:10.535Z,0.40
2018-12-02T22:03:38.977Z,0.40
2018-12-02T22:06:07.406Z,0.70
2018-12-02T22:08:35.890Z,1.27
2018-12-02T22:11:07.178Z,1.30
2018-12-02T22:13:35.673Z,0.57
2018-12-02T22:16:05.958Z,0.40
2018-12-02T22:18:34.430Z,0.50
2018-12-02T22:21:06.083Z,1.17
2018-12-02T22:23:34.595Z,0.70
2018-12-02T22:26:05.254Z,0.40
2018-12-02T22:28:33.672Z,0.77
2018-12-02T22:31:05.581Z,0.30
2018-12-02T22:33:34.034Z,1.20
2018-12-02T22:36:04.528Z,0.30
2018-12-02T22:38:33.016Z,2.00
2018-12-02T22:41:03.711Z,1.00
2018-12-02T22:43:32.129Z,0.53
2018-12-02T22:46:00.576Z,0.87
2018-12-02T22:48:29.017Z,1.43
2018-12-02T22:50:57.488Z,0.50
2018-12-02T22:53:25.898Z,0.30
2018-12-02T22:55:54.505Z,0.80
2018-12-02T22:58:22.941Z,0.40
2018-12-02T23:00:56.663Z,0.87
2018-12-02T23:03:25.158Z,0.40
2018-12-02T23:05:53.568Z,0.97
2018-12-02T23:08:22.036Z,0.80
2018-12-02T23:10:50.457Z,0.40
2018-12-02T23:13:18.928Z,0.40
2018-12-02T23:15:47.359Z,1.30
2018-12-02T23:18:15.838Z,1.00
2018-12-02T23:20:44.269Z,0.40
2018-12-02T23:23:12.713Z,0.67
2018-12-02T23:25:41.144Z,0.40
2018-12-02T23:28:09.633Z,0.20
2018-12-02T23:30:38.065Z,1.77
2018-12-02T23:33:07.283Z,0.40
2018-12-02T23:35:35.920Z,0.63
2018-12-02T23:38:05.937Z,0.73
2018-12-02T23:40:34.455Z,1.10
2018-12-02T23:43:06.145Z,0.60
2018-12-02T23:45:34.574Z,0.40
2018-12-02T23:48:05.425Z,0.53
2018-12-02T23:50:33.841Z,0.53
2018-12-02T23:53:04.577Z,0.53
2018-12-02T23:55:32.994Z,0.53
2018-12-02T23:58:02.790Z,0.30
